Time;durP1;ratioP1;P1;durP2;ratioP2;P2;SDS_P1;SDS_P2;PMS_P1;PMS_P2;Temp;Humidity;BMP_temperature;BMP_pressure;BME280_temperature;BME280_humidity;BME280_pressure;Samples;Min_cycle;Max_cycle;Signal;HPM_P1;HPM_P2
2020/12/31 00:01:06;;;;;;;;;;;2.80;99.90;;;;;;5227873;22;19912;-89
2020/12/31 00:03:34;;;;;;;;;;;2.80;99.90;;;;;;5074303;28;20397;-88
2020/12/31 00:06:00;;;;;;;;;;;2.80;99.90;;;;;;5075764;28;19919;-87
2020/12/31 00:08:25;;;;;;;;;;;2.70;99.90;;;;;;5075855;28;20258;-90
2020/12/31 00:10:51;;;;;;;;;;;2.70;99.90;;;;;;5074851;28;19961;-89
2020/12/31 00:13:16;;;;;;;;;;;2.70;99.90;;;;;;5075518;28;19933;-89
2020/12/31 00:15:42;;;;;;;;;;;2.70;99.90;;;;;;5075400;28;19908;-86
2020/12/31 00:18:10;;;;;;;;;;;2.70;99.90;;;;;;5075686;28;19908;-88
2020/12/31 00:20:35;;;;;;;;;;;2.70;99.90;;;;;;5075413;28;20007;-88
2020/12/31 00:23:01;;;;;;;;;;;2.80;99.90;;;;;;5205612;22;20471;-85
2020/12/31 00:25:36;;;;;;;;;;;2.80;99.90;;;;;;5094552;28;19912;-85
2020/12/31 00:28:04;;;;;;;;;;;2.80;99.90;;;;;;5094375;28;20312;-86
2020/12/31 00:30:32;;;;;;;;;;;2.80;99.90;;;;;;5094445;28;20362;-86
2020/12/31 00:32:58;;;;;;;;;;;2.70;99.90;;;;;;5094367;28;19935;-85
2020/12/31 00:35:28;;;;;;;;;;;2.70;99.90;;;;;;5094354;28;19922;-85
2020/12/31 00:37:53;;;;;;;;;;;2.70;99.90;;;;;;5094235;28;20370;-85
2020/12/31 00:40:19;;;;;;;;;;;2.70;99.90;;;;;;5094265;28;19908;-85
2020/12/31 00:42:46;;;;;;;;;;;2.70;99.90;;;;;;5094254;28;20378;-85
2020/12/31 00:45:12;;;;;;;;;;;2.80;99.90;;;;;;5094135;28;20072;-85
2020/12/31 00:47:40;;;;;;;;;;;2.80;99.90;;;;;;5094122;28;19918;-85
2020/12/31 00:50:05;;;;;;;;;;;2.80;99.90;;;;;;5093991;28;19912;-85
2020/12/31 00:52:31;;;;;;;;;;;2.80;99.90;;;;;;5093924;28;19908;-85
2020/12/31 00:54:56;;;;;;;;;;;2.80;99.90;;;;;;5094344;28;19908;-86
2020/12/31 00:57:24;;;;;;;;;;;2.80;99.90;;;;;;5094393;28;19919;-85
2020/12/31 00:59:50;;;;;;;;;;;2.80;99.90;;;;;;5094073;28;19908;-86
2020/12/31 01:02:15;;;;;;;;;;;2.80;99.90;;;;;;5093860;28;19916;-85
2020/12/31 01:04:46;;;;;;;;;;;2.80;99.90;;;;;;5094205;28;19907;-85
2020/12/31 01:07:15;;;;;;;;;;;2.80;99.90;;;;;;5094276;28;20374;-85
2020/12/31 01:09:41;;;;;;;;;;;2.90;99.90;;;;;;5094186;28;19914;-85
2020/12/31 01:12:06;;;;;;;;;;;2.90;99.90;;;;;;5096287;28;19908;-85
2020/12/31 01:14:34;;;;;;;;;;;2.90;99.90;;;;;;5116261;28;19908;-85
2020/12/31 01:16:59;;;;;;;;;;;2.90;99.90;;;;;;5098143;28;19951;-85
2020/12/31 01:19:28;;;;;;;;;;;2.90;99.90;;;;;;5097855;28;19934;-85
2020/12/31 01:21:54;;;;;;;;;;;2.90;99.90;;;;;;5097469;28;20039;-85
2020/12/31 01:24:21;;;;;;;;;;;2.90;99.90;;;;;;5115703;28;19920;-86
2020/12/31 01:26:47;;;;;;;;;;;2.90;99.90;;;;;;5097912;28;20216;-85
2020/12/31 01:29:15;;;;;;;;;;;2.90;99.90;;;;;;5097561;28;19908;-85
2020/12/31 01:31:40;;;;;;;;;;;2.90;99.90;;;;;;5097449;28;19914;-85
2020/12/31 01:34:08;;;;;;;;;;;2.90;99.90;;;;;;5097713;28;19995;-85
2020/12/31 01:36:36;;;;;;;;;;;2.90;99.90;;;;;;5097698;28;20290;-86
2020/12/31 01:39:04;;;;;;;;;;;2.80;99.90;;;;;;5097879;28;19951;-85
2020/12/31 01:41:32;;;;;;;;;;;2.80;99.90;;;;;;5097453;28;20151;-85
2020/12/31 01:44:02;;;;;;;;;;;2.80;99.90;;;;;;5097553;28;19908;-85
2020/12/31 01:46:32;;;;;;;;;;;2.90;99.90;;;;;;5097156;28;19983;-86
2020/12/31 01:48:59;;;;;;;;;;;2.90;99.90;;;;;;5097069;28;19907;-85
2020/12/31 01:51:24;;;;;;;;;;;2.80;99.90;;;;;;5097292;28;19914;-86
2020/12/31 01:53:56;;;;;;;;;;;2.70;99.90;;;;;;5097200;28;19908;-86
2020/12/31 01:56:31;;;;;;;;;;;2.70;99.90;;;;;;5097212;28;20370;-86
2020/12/31 01:58:56;;;;;;;;;;;2.60;99.90;;;;;;5096989;28;19915;-85
2020/12/31 02:01:22;;;;;;;;;;;2.70;99.90;;;;;;5097201;28;19912;-85
2020/12/31 02:03:49;;;;;;;;;;;2.60;99.90;;;;;;5097173;28;19916;-85
2020/12/31 02:06:16;;;;;;;;;;;2.50;99.90;;;;;;5097011;28;19995;-85
2020/12/31 02:08:43;;;;;;;;;;;2.50;99.90;;;;;;5097054;28;19907;-85
2020/12/31 02:11:08;;;;;;;;;;;2.40;99.90;;;;;;5096840;28;20331;-85
2020/12/31 02:13:34;;;;;;;;;;;2.50;99.90;;;;;;5097020;28;19943;-85
2020/12/31 02:16:02;;;;;;;;;;;2.40;99.90;;;;;;5096631;28;20007;-85
2020/12/31 02:18:27;;;;;;;;;;;2.40;99.90;;;;;;5097070;28;19914;-86
2020/12/31 02:20:54;;;;;;;;;;;2.30;99.90;;;;;;5096852;28;19912;-85
2020/12/31 02:23:19;;;;;;;;;;;2.30;99.90;;;;;;5095723;28;19927;-85
2020/12/31 02:25:45;;;;;;;;;;;2.20;99.90;;;;;;5096550;28;19908;-85
2020/12/31 02:28:10;;;;;;;;;;;2.20;99.90;;;;;;5096603;28;19991;-85
2020/12/31 02:30:36;;;;;;;;;;;2.20;99.90;;;;;;5096601;28;19991;-85
2020/12/31 02:33:04;;;;;;;;;;;2.20;99.90;;;;;;5096711;28;20006;-85
2020/12/31 02:35:29;;;;;;;;;;;2.10;99.90;;;;;;5096483;28;19952;-85
2020/12/31 02:37:57;;;;;;;;;;;2.10;99.90;;;;;;5096515;28;20010;-85
2020/12/31 02:40:25;;;;;;;;;;;2.10;99.90;;;;;;5096206;28;20117;-85
2020/12/31 02:42:51;;;;;;;;;;;2.10;99.90;;;;;;5095762;28;19916;-85
2020/12/31 02:45:21;;;;;;;;;;;2.00;99.90;;;;;;5096035;28;20312;-85
2020/12/31 02:47:47;;;;;;;;;;;2.00;99.90;;;;;;5096306;28;19908;-85
2020/12/31 02:50:12;;;;;;;;;;;2.00;99.90;;;;;;5096135;28;19994;-84
2020/12/31 02:52:38;;;;;;;;;;;2.00;99.90;;;;;;5096109;28;19908;-85
2020/12/31 02:55:03;;;;;;;;;;;2.00;99.90;;;;;;5096214;28;19918;-85
2020/12/31 02:57:29;;;;;;;;;;;1.90;99.90;;;;;;5096100;28;19914;-85
2020/12/31 02:59:54;;;;;;;;;;;1.90;99.90;;;;;;5095931;28;20381;-85
2020/12/31 03:02:20;;;;;;;;;;;1.90;99.90;;;;;;5095741;28;19926;-85
2020/12/31 03:04:48;;;;;;;;;;;1.90;99.90;;;;;;5096018;28;19912;-85
2020/12/31 03:07:13;;;;;;;;;;;1.90;99.90;;;;;;5095925;28;19918;-85
2020/12/31 03:09:39;;;;;;;;;;;1.90;99.90;;;;;;5095807;28;20266;-84
2020/12/31 03:12:04;;;;;;;;;;;1.90;99.90;;;;;;5095714;28;19922;-85
2020/12/31 03:14:32;;;;;;;;;;;1.90;99.90;;;;;;5113851;28;19911;-85
2020/12/31 03:16:58;;;;;;;;;;;1.90;99.90;;;;;;5095620;28;19919;-85
2020/12/31 03:19:23;;;;;;;;;;;1.90;99.90;;;;;;5096015;28;19912;-85
2020/12/31 03:21:49;;;;;;;;;;;1.80;99.90;;;;;;5095292;28;20362;-85
2020/12/31 03:24:16;;;;;;;;;;;1.90;99.90;;;;;;5095433;28;20204;-85
2020/12/31 03:26:44;;;;;;;;;;;1.90;99.90;;;;;;5095448;28;19908;-85
2020/12/31 03:29:10;;;;;;;;;;;1.90;99.90;;;;;;5113571;28;20377;-85
2020/12/31 03:31:35;;;;;;;;;;;1.90;99.90;;;;;;5095475;28;19916;-85
2020/12/31 03:34:03;;;;;;;;;;;1.90;99.90;;;;;;5095334;28;19952;-84
2020/12/31 03:36:29;;;;;;;;;;;1.80;99.90;;;;;;5095447;28;19935;-86
2020/12/31 03:38:57;;;;;;;;;;;1.80;99.90;;;;;;5095026;28;19915;-84
2020/12/31 03:41:25;;;;;;;;;;;1.80;99.90;;;;;;5094872;28;19914;-84
2020/12/31 03:43:51;;;;;;;;;;;1.70;99.90;;;;;;5112965;28;19994;-84
2020/12/31 03:46:16;;;;;;;;;;;1.70;99.90;;;;;;5095005;28;19976;-85
2020/12/31 03:48:42;;;;;;;;;;;1.60;99.90;;;;;;5095573;28;19990;-85
2020/12/31 03:51:07;;;;;;;;;;;1.60;99.90;;;;;;5094690;28;19915;-85
2020/12/31 03:53:37;;;;;;;;;;;1.60;99.90;;;;;;5095633;28;19985;-84
2020/12/31 03:56:03;;;;;;;;;;;1.50;99.90;;;;;;5095009;28;19943;-85
2020/12/31 03:58:31;;;;;;;;;;;1.50;99.90;;;;;;5094916;28;19908;-85
2020/12/31 04:00:57;;;;;;;;;;;1.50;99.90;;;;;;5094730;28;19914;-84
2020/12/31 04:03:23;;;;;;;;;;;1.50;99.90;;;;;;5094044;28;20412;-85
2020/12/31 04:05:51;;;;;;;;;;;1.50;99.90;;;;;;5094989;28;19961;-84
2020/12/31 04:08:17;;;;;;;;;;;1.50;99.90;;;;;;5094859;28;19907;-84
2020/12/31 04:10:42;;;;;;;;;;;1.40;99.90;;;;;;5095039;28;19915;-84
2020/12/31 04:13:10;;;;;;;;;;;1.40;99.90;;;;;;5094959;28;19912;-85
2020/12/31 04:15:38;;;;;;;;;;;1.40;99.90;;;;;;5094587;28;19907;-85
2020/12/31 04:18:03;;;;;;;;;;;1.40;99.90;;;;;;5094408;28;19919;-83
2020/12/31 04:20:29;;;;;;;;;;;1.40;99.90;;;;;;5094677;28;19916;-85
2020/12/31 04:22:54;;;;;;;;;;;1.40;99.90;;;;;;5094065;28;20290;-85
2020/12/31 04:25:20;;;;;;;;;;;1.40;99.90;;;;;;5094840;28;20049;-84
2020/12/31 04:27:45;;;;;;;;;;;1.40;99.90;;;;;;5095049;28;19911;-84
2020/12/31 04:30:11;;;;;;;;;;;1.30;99.90;;;;;;5094625;28;19962;-84
2020/12/31 04:32:39;;;;;;;;;;;1.30;99.90;;;;;;5094499;28;19961;-85
2020/12/31 04:35:07;;;;;;;;;;;1.30;99.90;;;;;;5094131;28;19927;-84
2020/12/31 04:37:32;;;;;;;;;;;1.20;99.90;;;;;;5094571;28;20120;-84
2020/12/31 04:39:58;;;;;;;;;;;1.20;99.90;;;;;;5094481;28;19908;-84
2020/12/31 04:42:32;;;;;;;;;;;1.20;99.90;;;;;;5095059;28;19919;-84
2020/12/31 04:44:58;;;;;;;;;;;1.20;99.90;;;;;;5094374;28;20011;-83
2020/12/31 04:47:23;;;;;;;;;;;1.20;99.90;;;;;;5097224;28;19939;-84
2020/12/31 04:49:51;;;;;;;;;;;1.20;99.90;;;;;;5098315;28;19908;-84
2020/12/31 04:52:17;;;;;;;;;;;1.20;99.90;;;;;;5098473;28;20018;-84
2020/12/31 04:54:44;;;;;;;;;;;1.20;99.90;;;;;;5098970;28;19974;-84
2020/12/31 04:57:10;;;;;;;;;;;1.20;99.90;;;;;;5098168;28;19908;-84
2020/12/31 04:59:36;;;;;;;;;;;1.20;99.90;;;;;;5098186;28;20049;-84
2020/12/31 05:02:03;;;;;;;;;;;1.20;99.90;;;;;;5098510;28;19911;-84
2020/12/31 05:04:30;;;;;;;;;;;1.20;99.90;;;;;;5098040;28;20014;-84
2020/12/31 05:06:58;;;;;;;;;;;1.10;99.90;;;;;;5097901;28;20010;-84
2020/12/31 05:09:24;;;;;;;;;;;1.00;99.90;;;;;;5097994;28;20371;-84
2020/12/31 05:11:56;;;;;;;;;;;1.00;99.90;;;;;;5097878;28;19908;-84
2020/12/31 05:14:34;;;;;;;;;;;1.00;99.90;;;;;;5097963;28;19955;-84
2020/12/31 05:17:23;;;;;;;;;;;1.00;99.90;;;;;;5097864;28;19908;-85
2020/12/31 05:19:48;;;;;;;;;;;0.90;99.90;;;;;;5097711;28;20325;-83
2020/12/31 05:22:15;;;;;;;;;;;0.90;99.90;;;;;;5097789;28;19919;-84
2020/12/31 05:24:41;;;;;;;;;;;1.00;99.90;;;;;;5097690;28;20302;-84
2020/12/31 05:27:27;;;;;;;;;;;1.00;99.90;;;;;;5097795;28;19908;-84
2020/12/31 05:30:03;;;;;;;;;;;0.90;99.90;;;;;;5096710;28;19915;-84
2020/12/31 05:32:30;;;;;;;;;;;0.90;99.90;;;;;;5097534;28;19908;-84
2020/12/31 05:34:56;;;;;;;;;;;0.90;99.90;;;;;;5097467;28;19908;-84
2020/12/31 05:37:25;;;;;;;;;;;0.90;99.90;;;;;;5097515;28;19933;-84
2020/12/31 05:39:59;;;;;;;;;;;0.90;99.90;;;;;;5097271;28;19908;-84
2020/12/31 05:42:28;;;;;;;;;;;0.80;99.90;;;;;;5115313;28;19922;-84
2020/12/31 05:44:57;;;;;;;;;;;0.90;99.90;;;;;;5097530;28;20531;-83
2020/12/31 05:47:25;;;;;;;;;;;0.90;99.90;;;;;;5097483;28;19940;-84
2020/12/31 05:49:52;;;;;;;;;;;0.80;99.90;;;;;;5097151;28;19934;-83
2020/12/31 05:52:37;;;;;;;;;;;0.80;99.90;;;;;;5097257;28;19930;-84
2020/12/31 05:55:06;;;;;;;;;;;0.80;99.90;;;;;;5097094;28;19957;-84
2020/12/31 05:57:45;;;;;;;;;;;0.80;99.90;;;;;;5096480;28;20374;-84
2020/12/31 06:00:15;;;;;;;;;;;0.80;99.90;;;;;;5097251;28;19908;-84
2020/12/31 06:02:42;;;;;;;;;;;0.80;99.90;;;;;;5097028;28;19915;-84
2020/12/31 06:05:14;;;;;;;;;;;0.80;99.90;;;;;;5097151;28;20342;-84
2020/12/31 06:07:47;;;;;;;;;;;0.80;99.90;;;;;;5097224;28;19912;-84
2020/12/31 06:10:14;;;;;;;;;;;0.90;99.90;;;;;;5096810;28;19973;-84
2020/12/31 06:12:49;;;;;;;;;;;0.90;99.90;;;;;;5208584;22;19963;-88
2020/12/31 06:15:18;;;;;;;;;;;0.90;99.90;;;;;;5094218;28;20314;-87
2020/12/31 06:17:47;;;;;;;;;;;0.80;99.90;;;;;;5093723;28;19908;-86
2020/12/31 06:20:15;;;;;;;;;;;0.80;99.90;;;;;;5093445;28;19915;-89
2020/12/31 06:22:56;;;;;;;;;;;0.80;99.90;;;;;;5093546;28;19928;-87
2020/12/31 06:25:31;;;;;;;;;;;0.80;99.90;;;;;;5094565;28;20282;-88
2020/12/31 06:28:02;;;;;;;;;;;0.80;99.90;;;;;;5257928;22;20356;-87
2020/12/31 06:30:55;;;;;;;;;;;0.80;99.90;;;;;;5059277;28;19913;-87
2020/12/31 06:33:23;;;;;;;;;;;0.80;99.90;;;;;;5058720;28;19919;-88
2020/12/31 06:36:01;;;;;;;;;;;0.80;99.90;;;;;;5075631;28;19909;-86
2020/12/31 06:38:30;;;;;;;;;;;0.80;99.90;;;;;;5059121;28;19977;-87
2020/12/31 06:40:56;;;;;;;;;;;0.90;99.90;;;;;;5075414;28;19916;-89
2020/12/31 06:43:29;;;;;;;;;;;0.80;99.90;;;;;;5058574;28;19916;-88
2020/12/31 06:46:14;;;;;;;;;;;0.80;99.90;;;;;;5058707;28;19908;-88
2020/12/31 06:48:42;;;;;;;;;;;0.80;99.90;;;;;;5075273;28;20011;-88
2020/12/31 06:51:11;;;;;;;;;;;0.80;99.90;;;;;;5058653;28;19916;-87
2020/12/31 06:53:37;;;;;;;;;;;0.80;99.90;;;;;;5058515;28;20374;-87
2020/12/31 06:56:07;;;;;;;;;;;0.80;99.90;;;;;;5064458;28;19909;-89
2020/12/31 06:58:33;;;;;;;;;;;0.80;99.90;;;;;;5056122;28;19909;-88
2020/12/31 07:01:01;;;;;;;;;;;0.90;99.90;;;;;;5058711;28;19908;-87
2020/12/31 07:03:39;;;;;;;;;;;0.90;99.90;;;;;;5058336;28;20363;-88
2020/12/31 07:06:20;;;;;;;;;;;0.90;99.90;;;;;;5074988;28;19944;-87
2020/12/31 07:08:45;;;;;;;;;;;0.90;99.90;;;;;;5075092;28;19912;-88
2020/12/31 07:11:11;;;;;;;;;;;0.90;99.90;;;;;;5058270;28;20409;-88
2020/12/31 07:13:38;;;;;;;;;;;0.90;99.90;;;;;;5058127;28;19908;-87
2020/12/31 07:16:04;;;;;;;;;;;1.00;99.90;;;;;;5058147;28;19908;-88
2020/12/31 07:18:32;;;;;;;;;;;0.90;99.90;;;;;;5058117;28;19919;-88
2020/12/31 07:20:59;;;;;;;;;;;0.90;99.90;;;;;;5058031;28;19975;-87
2020/12/31 07:26:27;;;;;;;;;;;0.90;99.90;;;;;;5075585;28;19962;-87
2020/12/31 07:28:53;;;;;;;;;;;0.90;99.90;;;;;;5057635;28;19924;-88
2020/12/31 07:31:37;;;;;;;;;;;0.90;99.90;;;;;;5057722;28;19909;-89
2020/12/31 07:34:23;;;;;;;;;;;1.00;99.90;;;;;;5210271;22;19924;-86
2020/12/31 07:37:05;;;;;;;;;;;1.00;99.90;;;;;;5091768;28;19957;-85
2020/12/31 07:39:32;;;;;;;;;;;1.00;99.90;;;;;;5091900;28;19915;-86
2020/12/31 07:42:11;;;;;;;;;;;1.00;99.90;;;;;;5092193;28;19908;-86
2020/12/31 07:44:47;;;;;;;;;;;1.00;99.90;;;;;;5092136;28;19908;-86
2020/12/31 07:47:13;;;;;;;;;;;1.10;99.90;;;;;;5091457;28;19908;-87
2020/12/31 07:49:42;;;;;;;;;;;1.10;99.90;;;;;;5091844;28;19916;-86
2020/12/31 07:52:08;;;;;;;;;;;1.10;99.90;;;;;;5091739;28;19919;-86
2020/12/31 07:54:33;;;;;;;;;;;1.10;99.90;;;;;;5091437;28;19908;-87
2020/12/31 07:57:01;;;;;;;;;;;1.20;99.90;;;;;;5091844;28;19915;-86
2020/12/31 07:59:27;;;;;;;;;;;1.20;99.90;;;;;;5091619;28;19916;-86
2020/12/31 08:01:57;;;;;;;;;;;1.20;99.90;;;;;;5092069;28;19908;-86
2020/12/31 08:04:28;;;;;;;;;;;1.20;99.90;;;;;;5091832;28;19912;-86
2020/12/31 08:06:54;;;;;;;;;;;1.20;99.90;;;;;;5091209;28;19912;-86
2020/12/31 08:09:22;;;;;;;;;;;1.30;99.90;;;;;;5082360;28;19913;-87
2020/12/31 08:11:51;;;;;;;;;;;1.30;99.90;;;;;;5080912;28;20492;-86
2020/12/31 08:14:19;;;;;;;;;;;1.30;99.90;;;;;;5079433;28;20378;-86
2020/12/31 08:17:01;;;;;;;;;;;1.40;99.90;;;;;;5081106;28;20011;-86
2020/12/31 08:19:27;;;;;;;;;;;1.30;99.90;;;;;;5086288;28;19908;-86
2020/12/31 08:21:55;;;;;;;;;;;1.40;99.90;;;;;;5086125;28;19915;-86
2020/12/31 08:24:21;;;;;;;;;;;1.40;99.90;;;;;;5083274;28;19924;-86
2020/12/31 08:26:54;;;;;;;;;;;1.50;99.90;;;;;;5074671;28;19943;-86
2020/12/31 08:29:20;;;;;;;;;;;1.50;99.90;;;;;;5079529;28;19981;-86
2020/12/31 08:31:48;;;;;;;;;;;1.50;99.90;;;;;;5077191;28;20358;-86
2020/12/31 08:34:14;;;;;;;;;;;1.50;99.90;;;;;;5079237;28;20015;-86
2020/12/31 08:36:40;;;;;;;;;;;1.50;99.90;;;;;;5077999;28;19974;-86
2020/12/31 08:39:08;;;;;;;;;;;1.60;99.90;;;;;;5080138;28;19963;-86
2020/12/31 08:41:34;;;;;;;;;;;1.60;99.90;;;;;;5075623;28;19912;-86
2020/12/31 08:44:04;;;;;;;;;;;1.60;99.90;;;;;;5077111;28;19924;-86
2020/12/31 08:46:31;;;;;;;;;;;1.70;99.90;;;;;;5080941;28;20007;-86
2020/12/31 08:48:57;;;;;;;;;;;1.80;99.90;;;;;;5082332;28;20325;-86
2020/12/31 08:51:28;;;;;;;;;;;1.80;99.90;;;;;;5079911;28;19916;-86
2020/12/31 08:54:01;;;;;;;;;;;1.80;99.90;;;;;;5077504;28;19912;-86
2020/12/31 08:56:26;;;;;;;;;;;1.80;99.90;;;;;;5081029;28;19915;-86
2020/12/31 08:59:13;;;;;;;;;;;1.80;99.90;;;;;;5082881;28;19913;-86
2020/12/31 09:01:42;;;;;;;;;;;1.90;99.90;;;;;;5077841;28;19908;-86
2020/12/31 09:04:07;;;;;;;;;;;1.90;99.90;;;;;;5081011;28;19930;-86
2020/12/31 09:06:33;;;;;;;;;;;1.90;99.90;;;;;;5079017;28;19908;-87
2020/12/31 09:08:58;;;;;;;;;;;1.90;99.90;;;;;;5080160;28;19916;-86
2020/12/31 09:11:30;;;;;;;;;;;2.00;99.90;;;;;;5077739;28;19912;-87
2020/12/31 09:14:07;;;;;;;;;;;2.00;99.90;;;;;;5085139;28;20034;-86
2020/12/31 09:16:32;;;;;;;;;;;2.10;99.90;;;;;;5090741;28;19950;-87
2020/12/31 09:19:00;;;;;;;;;;;2.10;99.90;;;;;;5083770;28;19924;-86
2020/12/31 09:21:29;;;;;;;;;;;2.20;99.90;;;;;;5078600;28;19908;-86
2020/12/31 09:23:55;;;;;;;;;;;2.20;99.90;;;;;;5080246;28;19917;-87
2020/12/31 09:26:24;;;;;;;;;;;2.30;99.90;;;;;;5087693;28;19916;-86
2020/12/31 09:28:52;;;;;;;;;;;2.30;99.90;;;;;;5090566;28;20378;-87
2020/12/31 09:31:22;;;;;;;;;;;2.30;99.90;;;;;;5090525;28;19915;-87
2020/12/31 09:33:49;;;;;;;;;;;2.30;99.90;;;;;;5092892;28;20007;-87
2020/12/31 09:38:53;;;;;;;;;;;2.40;99.90;;;;;;5119129;22;19935;-87
2020/12/31 09:41:19;;;;;;;;;;;2.40;99.90;;;;;;5083771;28;20343;-86
2020/12/31 09:43:46;;;;;;;;;;;2.40;99.90;;;;;;5085728;28;19942;-87
2020/12/31 09:46:19;;;;;;;;;;;2.40;99.90;;;;;;5091694;28;19915;-87
2020/12/31 09:48:48;;;;;;;;;;;2.50;99.90;;;;;;5093708;28;19908;-88
2020/12/31 09:51:13;;;;;;;;;;;2.50;99.90;;;;;;5094011;28;19982;-86
2020/12/31 09:53:39;;;;;;;;;;;2.60;99.90;;;;;;5208366;22;20003;-87
2020/12/31 09:56:04;;;;;;;;;;;2.60;99.90;;;;;;5097059;28;19958;-87
2020/12/31 09:58:31;;;;;;;;;;;2.50;99.90;;;;;;5097298;28;19915;-86
2020/12/31 10:00:57;;;;;;;;;;;2.50;99.90;;;;;;5097255;28;20319;-86
2020/12/31 10:03:25;;;;;;;;;;;2.50;99.90;;;;;;5097076;28;19969;-86
2020/12/31 10:05:51;;;;;;;;;;;2.60;99.90;;;;;;5097214;28;19974;-87
2020/12/31 10:08:19;;;;;;;;;;;2.50;99.90;;;;;;5096978;28;20263;-86
2020/12/31 10:10:45;;;;;;;;;;;2.60;99.90;;;;;;5096781;28;19915;-87
2020/12/31 10:13:11;;;;;;;;;;;2.50;99.90;;;;;;5097118;28;20345;-86
2020/12/31 10:15:37;;;;;;;;;;;2.50;99.90;;;;;;5097106;28;20000;-86
2020/12/31 10:18:02;;;;;;;;;;;2.50;99.90;;;;;;5097029;28;19912;-87
2020/12/31 10:20:30;;;;;;;;;;;2.50;99.90;;;;;;5097133;28;19908;-87
2020/12/31 10:22:56;;;;;;;;;;;2.40;99.90;;;;;;5096440;28;19951;-87
2020/12/31 10:25:21;;;;;;;;;;;2.40;99.90;;;;;;5096406;28;20378;-87
2020/12/31 10:27:47;;;;;;;;;;;2.50;99.90;;;;;;5095051;28;20153;-87
2020/12/31 10:30:12;;;;;;;;;;;2.50;99.90;;;;;;5080882;28;20363;-87
2020/12/31 10:32:38;;;;;;;;;;;2.50;99.90;;;;;;5084712;28;20370;-87
2020/12/31 10:35:04;;;;;;;;;;;2.50;99.90;;;;;;5091063;28;19908;-86
2020/12/31 10:37:29;;;;;;;;;;;2.60;99.90;;;;;;5091620;28;20050;-87
2020/12/31 10:39:55;;;;;;;;;;;2.60;99.90;;;;;;5083704;28;19911;-87
2020/12/31 10:42:20;;;;;;;;;;;2.60;99.90;;;;;;5087782;28;20427;-87
2020/12/31 10:44:46;;;;;;;;;;;2.70;99.90;;;;;;5094092;28;19907;-87
2020/12/31 10:47:11;;;;;;;;;;;2.70;99.90;;;;;;5089744;28;19939;-87
2020/12/31 10:49:39;;;;;;;;;;;2.60;99.90;;;;;;5085942;28;19912;-86
2020/12/31 10:52:05;;;;;;;;;;;2.70;99.90;;;;;;5085748;28;20424;-87
2020/12/31 10:54:33;;;;;;;;;;;2.70;99.90;;;;;;5080194;28;19920;-86
2020/12/31 10:56:59;;;;;;;;;;;2.70;99.90;;;;;;5074851;28;19916;-86
2020/12/31 10:59:25;;;;;;;;;;;2.70;99.90;;;;;;5074301;28;19908;-87
2020/12/31 11:01:54;;;;;;;;;;;2.70;99.90;;;;;;5077749;28;19907;-86
2020/12/31 11:04:22;;;;;;;;;;;2.80;99.90;;;;;;5087183;28;19916;-87
2020/12/31 11:06:49;;;;;;;;;;;2.80;99.90;;;;;;5085561;28;19904;-87
2020/12/31 11:09:14;;;;;;;;;;;2.80;99.90;;;;;;5099235;28;19904;-87
2020/12/31 11:11:41;;;;;;;;;;;2.90;99.90;;;;;;5078342;28;19908;-86
2020/12/31 11:14:07;;;;;;;;;;;3.00;99.90;;;;;;5083479;28;20353;-87
2020/12/31 11:16:32;;;;;;;;;;;3.00;99.90;;;;;;5096514;28;19912;-88
2020/12/31 11:19:00;;;;;;;;;;;3.10;99.90;;;;;;5080027;28;19931;-87
2020/12/31 11:21:28;;;;;;;;;;;3.20;99.90;;;;;;5078339;28;19920;-87
2020/12/31 11:23:59;;;;;;;;;;;3.20;99.90;;;;;;5079253;28;20002;-87
2020/12/31 11:26:25;;;;;;;;;;;3.20;99.90;;;;;;5092650;28;20403;-87
2020/12/31 11:28:51;;;;;;;;;;;3.30;99.90;;;;;;5090528;28;19916;-87
2020/12/31 11:31:24;;;;;;;;;;;3.30;99.90;;;;;;5093802;28;19904;-87
2020/12/31 11:33:49;;;;;;;;;;;3.30;99.90;;;;;;5085908;28;20248;-87
2020/12/31 11:36:17;;;;;;;;;;;3.30;99.90;;;;;;5088182;28;19926;-87
2020/12/31 11:38:43;;;;;;;;;;;3.30;99.90;;;;;;5085100;28;20331;-87
2020/12/31 11:41:09;;;;;;;;;;;3.30;99.90;;;;;;5082050;28;19908;-87
2020/12/31 11:43:35;;;;;;;;;;;3.40;99.90;;;;;;5087877;28;19935;-86
2020/12/31 11:46:03;;;;;;;;;;;3.40;99.90;;;;;;5091208;28;19904;-87
2020/12/31 11:48:29;;;;;;;;;;;3.40;99.90;;;;;;5091562;28;20006;-87
2020/12/31 11:50:54;;;;;;;;;;;3.50;99.90;;;;;;5094208;28;19939;-87
2020/12/31 11:53:22;;;;;;;;;;;3.50;99.90;;;;;;5106627;28;19961;-87
2020/12/31 11:55:48;;;;;;;;;;;3.60;99.90;;;;;;5093749;28;20204;-86
2020/12/31 11:58:15;;;;;;;;;;;3.60;99.90;;;;;;5085319;28;19912;-87
2020/12/31 12:00:41;;;;;;;;;;;3.70;99.90;;;;;;5078820;28;19908;-87
2020/12/31 12:03:07;;;;;;;;;;;3.70;99.90;;;;;;5075909;28;19922;-87
2020/12/31 12:05:32;;;;;;;;;;;3.70;99.90;;;;;;5075194;28;20313;-86
2020/12/31 12:07:58;;;;;;;;;;;3.70;99.90;;;;;;5084807;28;19952;-87
2020/12/31 12:10:24;;;;;;;;;;;3.70;99.90;;;;;;5090839;28;19907;-87
2020/12/31 12:12:50;;;;;;;;;;;3.70;99.90;;;;;;5077990;28;20023;-87
2020/12/31 12:15:16;;;;;;;;;;;3.70;99.90;;;;;;5083432;28;19990;-86
2020/12/31 12:17:42;;;;;;;;;;;3.70;99.90;;;;;;5070876;28;19999;-86
2020/12/31 12:20:10;;;;;;;;;;;3.70;99.90;;;;;;5081245;28;20319;-86
2020/12/31 12:22:38;;;;;;;;;;;3.80;99.90;;;;;;5076118;28;19915;-87
2020/12/31 12:25:07;;;;;;;;;;;3.80;99.90;;;;;;5089570;28;19998;-87
2020/12/31 12:27:35;;;;;;;;;;;3.80;99.90;;;;;;5089851;28;20147;-87
2020/12/31 12:30:05;;;;;;;;;;;3.80;99.90;;;;;;5098675;28;19908;-86
2020/12/31 12:32:32;;;;;;;;;;;3.80;99.90;;;;;;5085913;28;19958;-86
2020/12/31 12:35:00;;;;;;;;;;;3.70;99.90;;;;;;5090147;28;19916;-86
2020/12/31 14:20:17;;;;;;;;;;;4.40;99.90;;;;;;5022104;28;20007;-87
2020/12/31 14:22:42;;;;;;;;;;;4.40;99.90;;;;;;5006063;28;19929;-86
2020/12/31 14:25:08;;;;;;;;;;;4.40;99.90;;;;;;5011131;28;19985;-86
2020/12/31 14:27:34;;;;;;;;;;;4.40;99.90;;;;;;5019552;28;19910;-86
2020/12/31 14:29:59;;;;;;;;;;;4.50;99.90;;;;;;5008865;28;19921;-85
2020/12/31 14:32:25;;;;;;;;;;;4.50;99.90;;;;;;5025039;28;19917;-86
2020/12/31 14:34:53;;;;;;;;;;;4.40;99.90;;;;;;5020944;28;19960;-86
2020/12/31 14:37:18;;;;;;;;;;;4.40;99.90;;;;;;5008553;28;19968;-86
2020/12/31 14:39:44;;;;;;;;;;;4.40;99.90;;;;;;5008885;28;19909;-86
2020/12/31 14:42:12;;;;;;;;;;;4.40;99.90;;;;;;5009016;28;19909;-86
2020/12/31 14:44:37;;;;;;;;;;;4.40;99.90;;;;;;5008217;28;20275;-86
2020/12/31 14:47:06;;;;;;;;;;;4.40;99.90;;;;;;5010012;28;19910;-86
2020/12/31 14:49:34;;;;;;;;;;;4.30;99.90;;;;;;5008789;28;20358;-86
2020/12/31 14:52:00;;;;;;;;;;;4.30;99.90;;;;;;5010169;28;20360;-86
2020/12/31 14:54:25;;;;;;;;;;;4.30;99.90;;;;;;5011761;28;19913;-86
2020/12/31 14:56:55;;;;;;;;;;;4.40;99.90;;;;;;5008725;28;19955;-87
2020/12/31 14:59:20;;;;;;;;;;;4.30;99.90;;;;;;5008403;28;19910;-86
2020/12/31 15:01:50;;;;;;;;;;;4.30;99.90;;;;;;5008501;28;19939;-86
2020/12/31 15:04:16;;;;;;;;;;;4.30;99.90;;;;;;5008046;28;20020;-85
2020/12/31 15:06:41;;;;;;;;;;;4.30;99.90;;;;;;5008092;28;20004;-86
2020/12/31 15:09:07;;;;;;;;;;;4.30;99.90;;;;;;5008282;28;19945;-86
2020/12/31 15:11:32;;;;;;;;;;;4.30;99.90;;;;;;5024496;28;19941;-87
2020/12/31 15:13:58;;;;;;;;;;;4.20;99.90;;;;;;5008119;28;19924;-87
2020/12/31 15:16:26;;;;;;;;;;;4.20;99.90;;;;;;5008272;28;19913;-86
2020/12/31 15:18:54;;;;;;;;;;;4.20;99.90;;;;;;5008116;28;20053;-86
2020/12/31 15:21:22;;;;;;;;;;;4.20;99.90;;;;;;5007901;28;20245;-86
2020/12/31 15:23:50;;;;;;;;;;;4.20;99.90;;;;;;5007915;28;19921;-85
2020/12/31 15:26:15;;;;;;;;;;;4.20;99.90;;;;;;5008430;28;20065;-86
2020/12/31 15:28:41;;;;;;;;;;;4.20;99.90;;;;;;5008188;28;20375;-86
2020/12/31 15:31:09;;;;;;;;;;;4.20;99.90;;;;;;5007871;28;20161;-86
2020/12/31 15:33:35;;;;;;;;;;;4.20;99.90;;;;;;5008844;28;19921;-86
2020/12/31 15:36:01;;;;;;;;;;;4.20;99.90;;;;;;5008149;28;20172;-86
2020/12/31 15:38:26;;;;;;;;;;;4.20;99.90;;;;;;5009263;28;19910;-86
2020/12/31 15:40:53;;;;;;;;;;;4.20;99.90;;;;;;5024607;28;19941;-86
2020/12/31 15:43:18;;;;;;;;;;;4.20;99.90;;;;;;5004221;28;19918;-86
2020/12/31 15:45:46;;;;;;;;;;;4.20;99.90;;;;;;5006844;28;19913;-87
2020/12/31 15:48:12;;;;;;;;;;;4.10;99.90;;;;;;5008869;28;20337;-86
2020/12/31 15:50:37;;;;;;;;;;;4.10;99.90;;;;;;5007409;28;19916;-86
2020/12/31 15:53:03;;;;;;;;;;;4.00;99.90;;;;;;5004446;28;19917;-86
2020/12/31 15:55:31;;;;;;;;;;;4.00;99.90;;;;;;5020377;28;20416;-87
2020/12/31 15:57:56;;;;;;;;;;;4.10;99.90;;;;;;5019662;28;19918;-84
2020/12/31 16:00:22;;;;;;;;;;;4.10;99.90;;;;;;5006133;28;19917;-84
2020/12/31 16:02:48;;;;;;;;;;;4.10;99.90;;;;;;5005678;28;19927;-84
2020/12/31 16:05:15;;;;;;;;;;;4.10;99.90;;;;;;5023300;28;19963;-84
2020/12/31 16:07:46;;;;;;;;;;;4.00;99.90;;;;;;5024199;28;19910;-84
2020/12/31 16:10:12;;;;;;;;;;;4.00;99.90;;;;;;5023871;28;19909;-84
2020/12/31 16:12:41;;;;;;;;;;;3.90;99.90;;;;;;5037356;28;19936;-84
2020/12/31 16:15:08;;;;;;;;;;;4.00;99.90;;;;;;5024140;28;20224;-84
2020/12/31 16:17:34;;;;;;;;;;;3.90;99.90;;;;;;5023670;28;19917;-85
2020/12/31 16:19:59;;;;;;;;;;;4.00;99.90;;;;;;5023634;28;19910;-84
2020/12/31 16:22:26;;;;;;;;;;;4.00;99.90;;;;;;5023769;28;19928;-84